Everson, Washington
Current Conditions -  °F | °C
As of 9:00 AM on Saturday 25 Oct 2014 (Local Time) from CYXX Reporting Station
Light Rain Light Rain  
Wind Chill: 50°   Ceiling: 3500
Heat Index: 50°   Visibility: 15mi
Dew Point: 45°   Wind: 14mph
Humidity: 82%   Direction: 80°E
Pressure: 29.53"   Gusts: 22mph
Location:  48.92°N, 122.34°W
Report Text: CYXX 251600Z 08012G19KT 15SM -RA BKN035 OVC090 10/07 A2953 RMK SC6AC2 PRESRR SLP999
Loading
Personal Weather Stations






























Interactive Weather Map
Tropical Storm Tracking
New forecast layout! Learn more

10-Day Weather Forecast

Advertisements
Track Severe Weather on mobile